Time;durP1;ratioP1;P1;durP2;ratioP2;P2;SDS_P1;SDS_P2;PMS_P1;PMS_P2;Temp;Humidity;BMP_temperature;BMP_pressure;BME280_temperature;BME280_humidity;BME280_pressure;Samples;Min_cycle;Max_cycle;Signal;HPM_P1;HPM_P2
2021/08/29 00:05:57;;;;;;;9.73;6.33;;;;;;;19.11;100.00;98838.92;4540389;78;28473;-81
2021/08/29 00:11:59;;;;;;;12.25;7.10;;;;;;;19.12;100.00;98844.63;4539085;78;28880;-81
2021/08/29 00:18:00;;;;;;;13.13;7.45;;;;;;;19.00;100.00;98850.45;4539571;78;28474;-81
2021/08/29 00:24:01;;;;;;;10.93;6.22;;;;;;;18.96;100.00;98847.53;4528619;78;28517;-82
2021/08/29 00:30:03;;;;;;;9.95;6.50;;;;;;;18.22;100.00;98849.95;4541203;77;28576;-82
2021/08/29 00:36:05;;;;;;;12.88;6.65;;;;;;;18.41;100.00;98843.22;4521774;79;28588;-84
2021/08/29 00:42:07;;;;;;;10.05;6.37;;;;;;;18.29;100.00;98840.09;4517274;78;28494;-83
2021/08/29 00:48:11;;;;;;;12.75;7.30;;;;;;;18.76;100.00;98841.23;4513475;79;28465;-82
2021/08/29 00:54:12;;;;;;;10.55;6.67;;;;;;;18.65;100.00;98831.56;4513835;79;28555;-82
2021/08/29 01:00:14;;;;;;;11.30;6.65;;;;;;;18.65;100.00;98827.47;4514707;79;28452;-81
2021/08/29 01:06:26;;;;;;;11.25;6.92;;;;;;;18.67;100.00;98830.71;4514903;79;28526;-81
2021/08/29 01:12:50;;;;;;;12.05;7.08;;;;;;;18.62;100.00;98822.05;4511686;78;28499;-82
2021/08/29 01:18:54;;;;;;;10.63;6.60;;;;;;;18.45;100.00;98821.69;4500151;77;28449;-82
2021/08/29 01:24:58;;;;;;;10.53;6.05;;;;;;;18.60;100.00;98815.27;4553131;78;28501;-81
2021/08/29 01:30:59;;;;;;;10.10;6.53;;;;;;;18.41;100.00;98809.20;4519713;78;28468;-82
2021/08/29 01:37:03;;;;;;;12.33;5.78;;;;;;;18.53;100.00;98816.44;4500803;78;28507;-82
2021/08/29 01:43:05;;;;;;;12.45;6.15;;;;;;;18.62;100.00;98804.35;4499810;78;28472;-81
2021/08/29 01:49:10;;;;;;;9.60;6.00;;;;;;;18.58;100.00;98816.11;4499164;78;28481;-82
2021/08/29 01:55:14;;;;;;;9.98;5.90;;;;;;;18.34;100.00;98808.19;4496746;77;28467;-82
2021/08/29 02:01:23;;;;;;;8.43;5.40;;;;;;;18.36;100.00;98801.91;4543973;78;28662;-81
2021/08/29 02:07:41;;;;;;;10.72;5.90;;;;;;;18.54;100.00;98790.02;4546925;78;28468;-80
2021/08/29 02:13:50;;;;;;;8.28;5.22;;;;;;;18.25;100.00;98794.41;4544268;78;28456;-81
2021/08/29 02:19:53;;;;;;;8.83;5.87;;;;;;;18.24;100.00;98794.16;4546941;78;28496;-80
2021/08/29 02:25:56;;;;;;;9.28;5.85;;;;;;;18.17;100.00;98788.23;4524981;78;28461;-80
2021/08/29 02:31:58;;;;;;;8.68;5.60;;;;;;;18.20;100.00;98790.94;4546973;78;28465;-80
2021/08/29 02:38:01;;;;;;;8.25;5.17;;;;;;;18.11;100.00;98784.75;4507353;77;28552;-80
2021/08/29 02:44:06;;;;;;;9.25;5.37;;;;;;;18.17;100.00;98784.16;4514724;78;28873;-80
2021/08/29 02:50:09;;;;;;;8.78;5.60;;;;;;;18.19;100.00;98788.75;4521986;78;28484;-80
2021/08/29 02:56:15;;;;;;;7.65;5.12;;;;;;;18.05;100.00;98787.81;4509306;78;28551;-80
2021/08/29 03:02:17;;;;;;;8.80;5.08;;;;;;;18.09;100.00;98782.05;4493733;79;28463;-80
2021/08/29 03:08:19;;;;;;;9.03;5.25;;;;;;;17.87;100.00;98781.16;4493805;79;28466;-81
2021/08/29 03:14:21;;;;;;;10.93;5.87;;;;;;;18.02;100.00;98797.89;4493615;79;28500;-80
2021/08/29 03:20:25;;;;;;;7.28;4.70;;;;;;;17.86;100.00;98806.70;4499449;78;28833;-81
2021/08/29 03:26:27;;;;;;;7.92;4.87;;;;;;;17.88;100.00;98793.09;4538413;78;28453;-81
2021/08/29 03:32:31;;;;;;;8.10;4.62;;;;;;;17.92;100.00;98784.64;4539357;78;28552;-81
2021/08/29 03:38:33;;;;;;;8.63;4.72;;;;;;;18.23;100.00;98774.85;4539880;78;28520;-81
2021/08/29 03:44:35;;;;;;;10.23;5.78;;;;;;;18.30;100.00;98780.48;4544283;77;28484;-81
2021/08/29 03:50:37;;;;;;;10.30;5.97;;;;;;;18.00;100.00;98776.94;4546688;78;28471;-81
2021/08/29 03:56:40;;;;;;;13.13;6.22;;;;;;;18.00;100.00;98775.58;4546183;78;28504;-81
2021/08/29 04:02:42;;;;;;;10.55;6.00;;;;;;;18.24;100.00;98782.45;4546417;78;28500;-81
2021/08/29 04:08:49;;;;;;;11.00;6.00;;;;;;;18.08;100.00;98788.59;4545780;78;28531;-81
2021/08/29 04:14:51;;;;;;;12.00;6.50;;;;;;;18.08;100.00;98785.88;4546192;78;28469;-82
2021/08/29 04:20:53;;;;;;;10.98;6.15;;;;;;;18.19;100.00;98780.59;4561036;77;28520;-82
2021/08/29 04:26:55;;;;;;;11.78;6.58;;;;;;;18.37;100.00;98778.23;4532555;77;28492;-81
2021/08/29 04:32:57;;;;;;;10.50;6.70;;;;;;;18.50;100.00;98782.18;4544688;78;28580;-82
2021/08/29 04:39:08;;;;;;;11.90;6.92;;;;;;;18.63;100.00;98777.38;4543937;78;28449;-81
2021/08/29 04:45:11;;;;;;;14.93;8.65;;;;;;;18.66;100.00;98769.98;4548603;78;28461;-81
2021/08/29 04:51:12;;;;;;;14.07;8.58;;;;;;;18.60;100.00;98773.06;4561385;78;28448;-81
2021/08/29 04:57:14;;;;;;;18.87;10.53;;;;;;;18.60;100.00;98770.34;4561447;78;28507;-81
2021/08/29 05:03:15;;;;;;;15.68;9.30;;;;;;;18.78;100.00;98768.21;4560972;77;28500;-81
2021/08/29 05:09:17;;;;;;;15.20;9.68;;;;;;;18.84;100.00;98767.59;4561708;78;28465;-82
2021/08/29 05:16:17;;;;;;;15.48;9.58;;;;;;;18.90;100.00;98774.61;4560875;78;28489;-82
2021/08/29 05:22:19;;;;;;;13.88;9.38;;;;;;;19.01;100.00;98775.86;4521495;78;28507;-81
2021/08/29 05:28:22;;;;;;;14.93;9.33;;;;;;;18.88;100.00;98771.91;4475413;79;28504;-82
2021/08/29 05:34:25;;;;;;;14.78;9.48;;;;;;;19.02;100.00;98765.22;4482916;79;28468;-81
2021/08/29 05:40:27;;;;;;;15.00;9.65;;;;;;;19.04;100.00;98776.05;4492454;78;28867;-81
2021/08/29 05:46:42;;;;;;;16.35;8.88;;;;;;;19.07;100.00;98785.02;4441534;78;28442;-83
2021/08/29 05:52:44;;;;;;;14.93;9.08;;;;;;;19.19;100.00;98779.11;4560016;78;28547;-81
2021/08/29 05:58:45;;;;;;;15.53;9.45;;;;;;;19.03;100.00;98774.44;4555985;78;28447;-79
2021/08/29 06:04:47;;;;;;;14.05;9.00;;;;;;;19.06;100.00;98788.03;4537630;78;28460;-83
2021/08/29 06:10:50;;;;;;;17.60;9.45;;;;;;;18.97;100.00;98776.14;4514367;78;28459;-84
2021/08/29 06:16:52;;;;;;;13.90;8.45;;;;;;;18.89;100.00;98782.48;4475932;79;28503;-82
2021/08/29 06:22:55;;;;;;;16.40;9.13;;;;;;;19.03;100.00;98781.81;4478629;78;28493;-84
2021/08/29 06:29:11;;;;;;;17.55;8.68;;;;;;;19.11;100.00;98780.34;4511623;77;28481;-83
2021/08/29 06:35:31;;;;;;;13.30;7.85;;;;;;;19.20;100.00;98779.37;4547075;77;28470;-83
2021/08/29 06:41:36;;;;;;;16.17;8.17;;;;;;;19.60;100.00;98783.14;4524386;78;28468;-79
2021/08/29 06:47:39;;;;;;;13.22;8.50;;;;;;;19.61;100.00;98792.13;4561503;78;28479;-79
2021/08/29 06:53:45;;;;;;;14.03;8.10;;;;;;;19.72;100.00;98790.05;4497665;77;28517;-84
2021/08/29 07:00:07;;;;;;;16.48;8.65;;;;;;;19.69;100.00;98792.02;4506123;78;28484;-81
2021/08/29 07:06:08;;;;;;;14.23;8.70;;;;;;;19.68;100.00;98795.28;4547607;77;28563;-83
2021/08/29 07:12:17;;;;;;;19.00;10.45;;;;;;;19.63;100.00;98793.45;4527806;78;28525;-80
2021/08/29 07:24:52;;;;;;;17.42;10.88;;;;;;;19.97;100.00;98777.92;4616324;75;74751;-79
2021/08/29 07:31:05;;;;;;;18.57;9.65;;;;;;;19.67;100.00;98777.84;4451770;77;28528;-81
2021/08/29 07:37:07;;;;;;;18.40;10.40;;;;;;;19.62;100.00;98773.28;4473588;78;28511;-79
2021/08/29 07:43:09;;;;;;;14.58;8.88;;;;;;;20.07;100.00;98771.45;4467034;77;28495;-78
2021/08/29 07:49:11;;;;;;;16.62;9.88;;;;;;;19.78;100.00;98769.20;4572148;77;28879;-79
2021/08/29 07:55:13;;;;;;;14.05;8.75;;;;;;;19.70;100.00;98774.55;4482437;78;28474;-79
2021/08/29 08:01:21;;;;;;;15.20;8.55;;;;;;;19.89;100.00;98770.39;4477099;78;28475;-77
2021/08/29 08:07:41;;;;;;;12.03;8.10;;;;;;;20.33;100.00;98771.00;4542178;78;28503;-78
2021/08/29 08:14:01;;;;;;;13.85;8.18;;;;;;;20.85;100.00;98765.30;4542072;78;28507;-78
2021/08/29 08:20:03;;;;;;;12.73;7.85;;;;;;;20.81;100.00;98766.19;4542566;78;28588;-79
2021/08/29 08:26:07;;;;;;;13.80;7.12;;;;;;;20.97;100.00;98751.13;4530648;78;28452;-80
2021/08/29 08:32:19;;;;;;;11.60;6.87;;;;;;;20.92;100.00;98766.25;4400795;78;28481;-78
2021/08/29 08:38:29;;;;;;;11.55;7.53;;;;;;;21.45;93.67;98763.95;4538372;77;28479;-77
2021/08/29 08:44:47;;;;;;;8.20;5.85;;;;;;;21.07;92.20;98761.58;4522744;77;28492;-79
2021/08/29 08:50:55;;;;;;;10.30;6.95;;;;;;;20.95;95.98;98772.48;4447496;77;28487;-77
2021/08/29 08:57:20;;;;;;;10.70;7.17;;;;;;;21.44;93.27;98775.47;4470924;78;28504;-78
2021/08/29 09:03:38;;;;;;;11.85;7.00;;;;;;;21.71;90.15;98770.21;4494280;77;28532;-79
2021/08/29 09:09:44;;;;;;;;;;;;;;;21.91;88.67;98770.23;4465987;77;28480;-79
2021/08/29 09:15:46;;;;;;;9.88;6.45;;;;;;;21.73;84.98;98770.70;4529677;78;20263;-78
2021/08/29 09:21:48;;;;;;;10.90;6.22;;;;;;;21.88;82.82;98772.81;4532494;77;28475;-78
2021/08/29 09:28:00;;;;;;;10.00;6.17;;;;;;;21.75;83.41;98768.45;4514278;77;28565;-79
2021/08/29 09:34:07;;;;;;;8.45;5.17;;;;;;;22.01;82.03;98763.12;4512753;77;28451;-79
2021/08/29 09:40:27;;;;;;;5.97;3.80;;;;;;;21.68;83.01;98764.80;4537061;77;28922;-79
2021/08/29 09:46:33;;;;;;;4.22;3.27;;;;;;;22.25;81.51;98767.44;4516317;78;28471;-78
2021/08/29 09:53:21;;;;;;;4.78;3.70;;;;;;;21.90;78.75;98773.31;4483099;78;28518;-77
2021/08/29 09:59:49;;;;;;;4.58;3.22;;;;;;;22.19;75.75;98771.43;4451794;80;28600;-78
2021/08/29 10:06:15;;;;;;;4.83;3.58;;;;;;;22.55;79.15;98767.74;4367045;81;28576;-80
2021/08/29 10:12:16;;;;;;;3.12;2.58;;;;;;;22.24;76.99;98758.98;4366396;80;28609;-81
2021/08/29 10:18:19;;;;;;;2.40;2.02;;;;;;;22.29;77.13;98754.72;4359222;80;28522;-81
2021/08/29 10:24:40;;;;;;;4.92;2.35;;;;;;;22.44;73.06;98751.33;4430702;78;28503;-81
2021/08/29 10:30:44;;;;;;;2.90;2.60;;;;;;;22.05;70.67;98753.73;4409060;78;28452;-81
2021/08/29 10:36:54;;;;;;;6.87;3.80;;;;;;;21.98;74.71;98760.23;4362311;80;28534;-80
2021/08/29 10:43:15;;;;;;;5.05;3.60;;;;;;;22.01;74.52;98760.97;4331210;80;28469;-83
2021/08/29 10:49:28;;;;;;;6.97;5.08;;;;;;;21.99;76.03;98750.91;4334711;80;28434;-84
2021/08/29 10:55:30;;;;;;;7.35;4.95;;;;;;;21.86;74.41;98748.49;4370251;80;28454;-84
2021/08/29 11:01:44;;;;;;;8.00;5.58;;;;;;;22.01;77.92;98739.86;4396437;79;28520;-84
2021/08/29 11:08:27;;;;;;;8.08;5.40;;;;;;;21.59;76.52;98737.91;4316667;80;28525;-84
2021/08/29 11:14:53;;;;;;;9.13;5.95;;;;;;;21.59;78.22;98737.37;4461526;78;28425;-84
2021/08/29 11:20:57;;;;;;;8.38;6.15;;;;;;;21.68;79.33;98731.97;4377042;77;28489;-85
2021/08/29 11:27:01;;;;;;;9.65;7.28;;;;;;;21.83;79.38;98730.77;4424185;78;28477;-84
2021/08/29 11:33:26;;;;;;;11.88;7.55;;;;;;;21.94;78.63;98727.21;4456292;78;28480;-84
2021/08/29 11:39:36;;;;;;;16.42;9.33;;;;;;;22.02;78.84;98727.00;4444802;78;28490;-82
2021/08/29 11:45:40;;;;;;;12.40;8.75;;;;;;;22.31;76.66;98734.43;4413060;78;28550;-81
2021/08/29 11:51:46;;;;;;;11.73;7.60;;;;;;;21.57;84.73;98731.95;4410865;78;28508;-80
2021/08/29 11:57:55;;;;;;;11.75;8.43;;;;;;;22.26;77.97;98727.16;4386721;78;28478;-80
2021/08/29 12:04:00;;;;;;;10.90;7.70;;;;;;;22.24;77.04;98722.57;4393482;78;28480;-80
2021/08/29 12:10:04;;;;;;;9.38;7.67;;;;;;;22.55;76.63;98711.59;4440726;78;28488;-80
2021/08/29 12:16:25;;;;;;;12.15;8.45;;;;;;;22.68;75.49;98709.02;4452817;78;28473;-80
2021/08/29 12:22:28;;;;;;;10.93;7.55;;;;;;;22.50;77.66;98699.39;4454204;78;28500;-78
2021/08/29 12:28:33;;;;;;;8.58;6.60;;;;;;;22.97;76.60;98705.65;4537219;78;28561;-79
2021/08/29 12:34:37;;;;;;;7.50;5.90;;;;;;;23.01;73.37;98708.56;4443479;78;28465;-76
2021/08/29 12:40:40;;;;;;;6.97;5.80;;;;;;;22.94;76.51;98698.63;4407239;78;28480;-75
2021/08/29 12:46:43;;;;;;;8.00;5.53;;;;;;;23.32;72.15;98689.77;4456074;78;28502;-76
2021/08/29 12:52:52;;;;;;;8.08;5.65;;;;;;;23.52;68.38;98691.02;4441906;78;28473;-78
2021/08/29 12:58:56;;;;;;;7.35;6.22;;;;;;;23.66;67.04;98685.33;4413987;78;28568;-78
2021/08/29 13:05:07;;;;;;;6.35;5.47;;;;;;;23.28;67.59;98683.89;4412223;78;28561;-81
2021/08/29 13:11:16;;;;;;;6.75;5.47;;;;;;;23.60;65.26;98679.80;4409781;78;28468;-80
2021/08/29 13:17:20;;;;;;;7.58;5.85;;;;;;;23.45;66.00;98681.13;4404173;78;28502;-80
2021/08/29 13:23:35;;;;;;;7.30;5.30;;;;;;;23.65;65.79;98682.35;4347875;80;28484;-80
2021/08/29 13:29:42;;;;;;;7.22;4.62;;;;;;;23.80;65.54;98674.73;4341738;80;28418;-78
2021/08/29 13:35:45;;;;;;;6.50;4.00;;;;;;;23.39;61.10;98681.86;4360224;80;28468;-80
2021/08/29 13:41:46;;;;;;;5.75;4.40;;;;;;;23.91;59.72;98667.75;4371314;80;28519;-78
2021/08/29 13:47:48;;;;;;;6.35;5.22;;;;;;;23.48;64.54;98679.09;4372588;80;28481;-79
2021/08/29 13:53:54;;;;;;;6.37;4.65;;;;;;;23.77;63.06;98669.88;4328625;80;28466;-79
2021/08/29 13:59:55;;;;;;;6.08;4.55;;;;;;;23.89;61.10;98675.48;4353171;80;28546;-79
2021/08/29 14:05:56;;;;;;;4.60;4.15;;;;;;;23.86;62.64;98669.87;4344663;80;28521;-80
2021/08/29 14:11:58;;;;;;;5.53;4.37;;;;;;;23.55;63.97;98675.05;4312960;80;28525;-80
2021/08/29 14:18:00;;;;;;;4.70;3.65;;;;;;;23.39;64.44;98676.94;4316890;80;28462;-80
2021/08/29 14:24:01;;;;;;;3.92;3.22;;;;;;;23.55;62.75;98679.96;4405035;78;28524;-81
2021/08/29 14:30:03;;;;;;;5.22;3.22;;;;;;;23.84;63.10;98677.60;4424432;79;28495;-80
2021/08/29 14:36:04;;;;;;;3.70;2.98;;;;;;;23.80;63.50;98678.27;4419401;78;28465;-80
2021/08/29 14:42:06;;;;;;;3.85;3.17;;;;;;;23.59;61.26;98684.23;4421397;78;28475;-80
2021/08/29 14:48:07;;;;;;;4.65;3.15;;;;;;;23.63;62.81;98678.31;4368523;80;28461;-80
2021/08/29 14:54:08;;;;;;;3.65;3.25;;;;;;;23.51;64.73;98682.55;4366179;80;28448;-79
2021/08/29 15:00:11;;;;;;;4.78;3.65;;;;;;;23.43;63.23;98680.66;4342227;81;28473;-79
2021/08/29 15:06:12;;;;;;;4.22;3.65;;;;;;;23.64;62.93;98674.47;4380107;80;28468;-79
2021/08/29 15:12:14;;;;;;;6.12;4.55;;;;;;;23.58;63.69;98671.65;4345627;80;28879;-79
2021/08/29 15:18:15;;;;;;;5.20;3.70;;;;;;;23.17;63.65;98669.67;4382118;80;28462;-79
2021/08/29 15:24:18;;;;;;;5.65;3.27;;;;;;;23.07;66.79;98671.64;4326813;80;28453;-79
2021/08/29 15:30:20;;;;;;;5.12;3.47;;;;;;;23.00;64.46;98665.01;4326748;80;28433;-78
2021/08/29 15:36:22;;;;;;;5.72;4.08;;;;;;;22.59;67.33;98655.56;4348933;80;28490;-79
2021/08/29 15:42:23;;;;;;;4.12;3.15;;;;;;;22.21;69.09;98645.19;4345877;80;28475;-79
2021/08/29 15:48:25;;;;;;;5.50;3.45;;;;;;;22.13;66.36;98638.58;4365201;80;28472;-78
2021/08/29 15:54:26;;;;;;;7.30;4.53;;;;;;;21.92;68.86;98645.17;4411001;79;28428;-79
2021/08/29 16:00:29;;;;;;;5.20;3.33;;;;;;;21.93;67.84;98646.78;4420531;79;28556;-80
2021/08/29 16:06:31;;;;;;;4.60;3.15;;;;;;;21.83;69.92;98644.58;4362794;80;28582;-79
2021/08/29 16:12:33;;;;;;;3.95;2.90;;;;;;;21.42;70.66;98637.44;4434786;79;28470;-78
2021/08/29 16:18:34;;;;;;;5.20;3.00;;;;;;;21.47;69.00;98633.76;4412832;78;28527;-79
2021/08/29 16:24:36;;;;;;;4.87;3.00;;;;;;;21.28;70.81;98629.31;4380183;80;28467;-79
2021/08/29 16:30:37;;;;;;;3.95;3.02;;;;;;;21.47;70.59;98631.03;4421389;78;29099;-80
2021/08/29 16:36:39;;;;;;;4.72;2.95;;;;;;;21.66;72.27;98641.18;4403032;78;28557;-79
2021/08/29 16:42:40;;;;;;;4.83;3.02;;;;;;;21.63;73.69;98641.00;4375006;80;28476;-79
2021/08/29 16:48:42;;;;;;;4.35;3.08;;;;;;;21.39;75.25;98643.54;4357664;80;28494;-78
2021/08/29 16:54:43;;;;;;;5.45;2.92;;;;;;;21.18;76.21;98643.48;4408666;78;28526;-78
2021/08/29 17:00:46;;;;;;;5.37;3.27;;;;;;;21.34;75.09;98646.39;4409998;78;28462;-78
2021/08/29 17:06:47;;;;;;;6.22;3.65;;;;;;;21.29;76.40;98650.06;4335122;80;28516;-78
2021/08/29 17:12:50;;;;;;;6.60;3.67;;;;;;;21.20;78.95;98667.78;4330286;80;28533;-78
2021/08/29 17:18:51;;;;;;;6.92;3.20;;;;;;;20.98;83.63;98675.41;4321640;81;28463;-78
2021/08/29 17:24:52;;;;;;;3.42;2.27;;;;;;;21.00;90.39;98682.76;4360287;79;28460;-78
2021/08/29 17:30:53;;;;;;;4.80;3.35;;;;;;;20.98;96.51;98686.34;4366858;80;28503;-77
2021/08/29 17:36:55;;;;;;;4.97;3.05;;;;;;;21.16;85.79;98689.45;4325660;80;28522;-78
2021/08/29 17:42:57;;;;;;;5.42;3.30;;;;;;;21.11;92.16;98703.26;4323707;80;28453;-77
2021/08/29 17:48:58;;;;;;;6.50;3.67;;;;;;;21.08;92.26;98701.70;4304231;80;28449;-78
2021/08/29 17:54:59;;;;;;;4.85;3.50;;;;;;;20.96;86.43;98709.89;4337915;80;28472;-78
2021/08/29 18:01:01;;;;;;;5.97;3.72;;;;;;;20.78;82.96;98714.37;4386513;79;28499;-77
2021/08/29 18:07:02;;;;;;;5.95;3.75;;;;;;;20.92;77.88;98716.28;4353162;80;28478;-76
2021/08/29 18:13:04;;;;;;;4.85;3.45;;;;;;;20.87;77.27;98723.45;4355897;80;28524;-76
2021/08/29 18:19:06;;;;;;;3.50;2.87;;;;;;;20.45;81.54;98727.61;4323282;80;28441;-77
2021/08/29 18:25:08;;;;;;;4.30;3.25;;;;;;;20.64;79.86;98732.14;4367723;80;28538;-77
2021/08/29 18:31:10;;;;;;;5.33;3.10;;;;;;;20.48;81.44;98732.45;4331973;80;28442;-76
2021/08/29 18:37:11;;;;;;;5.47;3.30;;;;;;;20.46;81.65;98727.86;4343836;80;28506;-78
2021/08/29 18:43:13;;;;;;;5.28;3.05;;;;;;;20.51;81.56;98719.30;4373160;78;28426;-79
2021/08/29 18:49:15;;;;;;;3.90;3.30;;;;;;;20.28;83.56;98705.02;4341870;80;28889;-79
2021/08/29 18:55:16;;;;;;;6.85;4.00;;;;;;;20.30;84.71;98704.70;4347549;80;28455;-79
2021/08/29 19:01:18;;;;;;;4.30;3.33;;;;;;;20.26;85.20;98707.80;4366377;78;28533;-79
2021/08/29 19:07:20;;;;;;;6.42;3.67;;;;;;;20.28;86.78;98705.56;4369085;78;28441;-79
2021/08/29 19:13:21;;;;;;;5.17;3.98;;;;;;;19.93;90.76;98710.05;4366648;79;28519;-79
2021/08/29 19:19:23;;;;;;;6.15;4.15;;;;;;;20.00;87.99;98700.92;4387187;79;28462;-81
2021/08/29 19:25:24;;;;;;;4.60;3.35;;;;;;;19.75;90.33;98699.44;4378428;78;28442;-80
2021/08/29 19:31:25;;;;;;;5.30;2.95;;;;;;;19.73;88.97;98698.94;4391806;79;28449;-78
2021/08/29 19:37:27;;;;;;;4.22;3.12;;;;;;;19.69;86.21;98694.64;4362869;78;28469;-79
2021/08/29 19:43:28;;;;;;;4.00;3.17;;;;;;;19.95;85.28;98691.48;4380610;78;28464;-80
2021/08/29 19:49:30;;;;;;;4.67;3.45;;;;;;;19.42;89.70;98700.84;4366859;80;28452;-79
2021/08/29 19:55:31;;;;;;;5.60;3.17;;;;;;;19.54;89.67;98699.02;4427745;79;28592;-81
2021/08/29 20:01:33;;;;;;;4.33;3.50;;;;;;;19.56;91.25;98700.88;4418741;79;28599;-81
2021/08/29 20:07:34;;;;;;;5.85;3.25;;;;;;;19.42;92.91;98707.11;4399531;78;28432;-82
2021/08/29 20:13:35;;;;;;;4.22;3.12;;;;;;;19.60;92.28;98705.44;4347020;80;28469;-81
2021/08/29 20:19:37;;;;;;;4.17;3.20;;;;;;;19.72;92.05;98690.51;4358632;80;28502;-81
2021/08/29 20:25:38;;;;;;;4.15;3.20;;;;;;;19.90;90.71;98686.90;4348630;80;28480;-81
2021/08/29 20:31:39;;;;;;;5.20;3.83;;;;;;;20.15;87.96;98682.62;4336106;80;28460;-80
2021/08/29 20:37:41;;;;;;;4.45;3.25;;;;;;;20.09;88.58;98679.75;4325631;80;28508;-80
2021/08/29 20:43:42;;;;;;;4.87;3.30;;;;;;;20.15;88.24;98677.16;4325220;80;28519;-79
2021/08/29 20:49:44;;;;;;;4.95;3.00;;;;;;;19.89;92.29;98677.10;4419755;78;28445;-77
2021/08/29 20:55:45;;;;;;;4.62;3.17;;;;;;;19.89;97.44;98676.28;4344326;80;28449;-77
2021/08/29 21:01:46;;;;;;;4.17;3.15;;;;;;;19.96;94.46;98674.00;4365145;80;28531;-76
2021/08/29 21:07:48;;;;;;;6.83;4.30;;;;;;;19.63;100.00;98670.74;4349550;80;28621;-76
2021/08/29 21:13:49;;;;;;;5.90;4.42;;;;;;;19.42;100.00;98679.85;4361754;80;28436;-76
2021/08/29 21:19:50;;;;;;;6.03;4.20;;;;;;;19.59;100.00;98670.28;4411947;79;28459;-77
2021/08/29 21:25:52;;;;;;;6.20;4.58;;;;;;;19.14;100.00;98666.13;4365535;80;28477;-77
2021/08/29 21:31:53;;;;;;;6.65;4.55;;;;;;;19.25;100.00;98660.51;4451555;78;28481;-77
2021/08/29 21:37:54;;;;;;;4.78;3.92;;;;;;;19.43;100.00;98648.75;4445331;78;28522;-77
2021/08/29 21:43:56;;;;;;;5.90;4.10;;;;;;;19.30;100.00;98634.52;4359923;80;28483;-77
2021/08/29 21:49:57;;;;;;;5.25;3.85;;;;;;;19.30;100.00;98637.24;4440387;78;28456;-77
2021/08/29 21:55:58;;;;;;;6.15;4.08;;;;;;;19.13;100.00;98642.72;4344356;80;28437;-76
2021/08/29 22:02:01;;;;;;;4.17;3.52;;;;;;;19.09;100.00;98661.57;4338096;80;28492;-77
2021/08/29 22:08:02;;;;;;;4.40;3.60;;;;;;;19.20;100.00;98669.58;4372158;79;28513;-78
2021/08/29 22:14:04;;;;;;;5.80;4.05;;;;;;;19.26;100.00;98664.28;4371980;79;28469;-78
2021/08/29 22:20:07;;;;;;;7.28;3.92;;;;;;;18.98;100.00;98643.73;4406952;79;28456;-78
2021/08/29 22:26:09;;;;;;;4.75;3.47;;;;;;;18.98;100.00;98640.19;4374660;79;28542;-78
2021/08/29 22:32:10;;;;;;;4.58;3.45;;;;;;;19.09;100.00;98640.31;4378518;79;28429;-77
2021/08/29 22:38:12;;;;;;;4.80;3.25;;;;;;;19.17;100.00;98632.03;4366898;79;28471;-77
2021/08/29 22:44:13;;;;;;;5.25;3.30;;;;;;;19.02;100.00;98607.22;4373090;79;28491;-77
2021/08/29 22:50:14;;;;;;;6.37;3.62;;;;;;;18.78;100.00;98613.53;4378926;79;28505;-76
2021/08/29 22:56:15;;;;;;;4.75;3.33;;;;;;;19.01;100.00;98623.30;4367869;79;28482;-77
2021/08/29 23:02:17;;;;;;;3.85;3.35;;;;;;;18.65;100.00;98623.28;4373396;79;28472;-76
2021/08/29 23:08:18;;;;;;;3.62;3.17;;;;;;;18.84;100.00;98612.89;4355219;79;28474;-77
2021/08/29 23:14:19;;;;;;;3.98;3.33;;;;;;;19.01;100.00;98612.41;4378875;79;28520;-77
2021/08/29 23:20:20;;;;;;;4.70;3.77;;;;;;;19.33;100.00;98606.69;4374033;79;28433;-77
2021/08/29 23:26:22;;;;;;;4.10;3.25;;;;;;;19.21;100.00;98607.98;4376178;79;28541;-78
2021/08/29 23:32:23;;;;;;;4.20;3.37;;;;;;;19.18;100.00;98616.73;4372556;79;28440;-77
2021/08/29 23:38:25;;;;;;;5.47;3.85;;;;;;;19.46;100.00;98615.44;4371692;79;28470;-76
2021/08/29 23:44:26;;;;;;;6.30;4.15;;;;;;;19.48;100.00;98606.39;4386390;79;28462;-77
2021/08/29 23:50:27;;;;;;;5.95;3.83;;;;;;;19.35;100.00;98610.70;4369578;79;28468;-77
2021/08/29 23:56:29;;;;;;;5.20;4.00;;;;;;;19.28;100.00;98605.41;4396554;79;28464;-77
